createdAt,value
2016-12-05T00:02:03.285Z,1028.700
2016-12-05T00:04:58.095Z,1028.681
2016-12-05T00:07:53.365Z,1028.647
2016-12-05T00:10:47.884Z,1028.610
2016-12-05T00:13:42.738Z,1028.562
2016-12-05T00:16:37.530Z,1028.536
2016-12-05T00:19:32.258Z,1028.540
2016-12-05T00:22:27.066Z,1028.501
2016-12-05T00:25:21.854Z,1028.502
2016-12-05T00:28:16.643Z,1028.442
2016-12-05T00:31:11.435Z,1028.423
2016-12-05T00:34:06.251Z,1028.428
2016-12-05T00:37:01.016Z,1028.406
2016-12-05T00:39:55.861Z,1028.398
2016-12-05T00:42:50.635Z,1028.420
2016-12-05T00:45:45.444Z,1028.409
2016-12-05T00:48:40.284Z,1028.403
2016-12-05T00:51:35.106Z,1028.387
2016-12-05T00:54:29.904Z,1028.383
2016-12-05T00:57:24.663Z,1028.428
2016-12-05T01:00:19.505Z,1028.437
2016-12-05T01:03:14.286Z,1028.466
2016-12-05T01:06:09.113Z,1028.463
2016-12-05T01:09:03.870Z,1028.516
2016-12-05T01:11:58.664Z,1028.500
2016-12-05T01:14:53.532Z,1028.463
2016-12-05T01:17:48.381Z,1028.414
2016-12-05T01:20:43.160Z,1028.438
2016-12-05T01:23:37.976Z,1028.419
2016-12-05T01:26:32.731Z,1028.412
2016-12-05T01:29:27.658Z,1028.425
2016-12-05T01:32:22.418Z,1028.419
2016-12-05T01:35:17.151Z,1028.382
2016-12-05T01:38:11.874Z,1028.361
2016-12-05T01:41:06.639Z,1028.353
2016-12-05T01:44:01.394Z,1028.357
2016-12-05T01:46:56.282Z,1028.304
2016-12-05T01:49:51.026Z,1028.235
2016-12-05T01:52:45.912Z,1028.211
2016-12-05T01:55:40.686Z,1028.206
2016-12-05T01:58:35.471Z,1028.197
2016-12-05T02:01:30.337Z,1028.194
2016-12-05T02:04:25.008Z,1028.141
2016-12-05T02:07:19.763Z,1028.111
2016-12-05T02:10:14.643Z,1028.070
2016-12-05T02:13:09.505Z,1028.077
2016-12-05T02:16:04.213Z,1028.079
2016-12-05T02:18:59.037Z,1028.033
2016-12-05T02:21:53.829Z,1027.998
2016-12-05T02:24:48.628Z,1027.944
2016-12-05T02:27:43.503Z,1027.964
2016-12-05T02:30:38.312Z,1027.992
2016-12-05T02:33:33.188Z,1027.976
2016-12-05T02:36:28.009Z,1027.969
2016-12-05T02:39:22.751Z,1027.929
2016-12-05T02:42:17.616Z,1027.899
2016-12-05T02:45:12.334Z,1027.873
2016-12-05T02:48:07.074Z,1027.854
2016-12-05T02:51:01.933Z,1027.810
2016-12-05T02:53:56.796Z,1027.811
2016-12-05T02:56:51.669Z,1027.847
2016-12-05T02:59:46.474Z,1027.794
2016-12-05T03:02:41.283Z,1027.782
2016-12-05T03:05:36.120Z,1027.732
2016-12-05T03:08:31.050Z,1027.708
2016-12-05T03:11:25.951Z,1027.681
2016-12-05T03:14:20.846Z,1027.675
2016-12-05T03:17:15.598Z,1027.681
2016-12-05T03:20:10.318Z,1027.656
2016-12-05T03:23:05.162Z,1027.654
2016-12-05T03:25:59.992Z,1027.665
2016-12-05T03:28:54.889Z,1027.644
2016-12-05T03:31:49.611Z,1027.645
2016-12-05T03:34:44.375Z,1027.605
2016-12-05T03:37:39.204Z,1027.549
2016-12-05T03:40:34.157Z,1027.541
2016-12-05T03:43:28.931Z,1027.532
2016-12-05T03:46:23.652Z,1027.462
2016-12-05T03:49:18.536Z,1027.425
2016-12-05T03:52:13.337Z,1027.406
2016-12-05T03:55:08.170Z,1027.399
2016-12-05T03:58:02.922Z,1027.387
2016-12-05T04:00:57.739Z,1027.376
2016-12-05T04:03:52.636Z,1027.360
2016-12-05T04:06:47.319Z,1027.354
2016-12-05T04:09:42.141Z,1027.339
2016-12-05T04:12:36.935Z,1027.340
2016-12-05T04:15:31.669Z,1027.329
2016-12-05T04:18:26.558Z,1027.270
2016-12-05T04:21:21.351Z,1027.245
2016-12-05T04:24:16.147Z,1027.202
2016-12-05T04:27:10.958Z,1027.164
2016-12-05T04:30:05.705Z,1027.149
2016-12-05T04:33:00.494Z,1027.153
2016-12-05T04:35:55.323Z,1027.174
2016-12-05T04:38:50.111Z,1027.177
2016-12-05T04:41:44.892Z,1027.156
2016-12-05T04:44:39.729Z,1027.102
2016-12-05T04:47:34.473Z,1027.042
2016-12-05T04:50:29.292Z,1026.998
2016-12-05T04:53:24.160Z,1026.984
2016-12-05T04:56:18.905Z,1026.984
2016-12-05T04:59:13.715Z,1027.001
2016-12-05T05:02:08.463Z,1027.028
2016-12-05T05:05:03.328Z,1027.029
2016-12-05T05:07:58.107Z,1027.031
2016-12-05T05:10:52.957Z,1027.039
2016-12-05T05:13:47.717Z,1027.021
2016-12-05T05:16:42.472Z,1027.007
2016-12-05T05:19:37.189Z,1026.978
2016-12-05T05:22:31.942Z,1026.978
2016-12-05T05:25:26.674Z,1026.917
2016-12-05T05:28:21.496Z,1026.857
2016-12-05T05:31:16.137Z,1026.798
2016-12-05T05:34:11.002Z,1026.755
2016-12-05T05:37:05.723Z,1026.710
2016-12-05T05:40:00.508Z,1026.693
2016-12-05T05:42:55.211Z,1026.660
2016-12-05T05:45:49.967Z,1026.625
2016-12-05T05:48:44.780Z,1026.666
2016-12-05T05:51:39.479Z,1026.698
2016-12-05T05:54:34.282Z,1026.730
2016-12-05T05:57:28.984Z,1026.714
2016-12-05T06:00:23.756Z,1026.710
2016-12-05T06:03:18.500Z,1026.661
2016-12-05T06:06:13.181Z,1026.674
2016-12-05T06:09:07.885Z,1026.661
2016-12-05T06:12:02.647Z,1026.672
2016-12-05T06:14:57.372Z,1026.683
2016-12-05T06:17:52.190Z,1026.668
2016-12-05T06:20:46.936Z,1026.673
2016-12-05T06:23:41.699Z,1026.611
2016-12-05T06:26:36.451Z,1026.580
2016-12-05T06:29:31.187Z,1026.531
2016-12-05T06:32:25.855Z,1026.547
2016-12-05T06:35:20.645Z,1026.514
2016-12-05T06:38:15.319Z,1026.482
2016-12-05T06:41:09.998Z,1026.496
2016-12-05T06:44:04.720Z,1026.514
2016-12-05T06:46:59.385Z,1026.498
2016-12-05T06:49:54.233Z,1026.510
2016-12-05T06:52:48.993Z,1026.475
2016-12-05T06:55:43.674Z,1026.511
2016-12-05T06:58:38.266Z,1026.478
2016-12-05T07:01:33.080Z,1026.468
2016-12-05T07:04:27.800Z,1026.459
2016-12-05T07:07:22.603Z,1026.421
2016-12-05T07:10:17.382Z,1026.404
2016-12-05T07:13:12.155Z,1026.419
2016-12-05T07:16:06.807Z,1026.428
2016-12-05T07:19:01.527Z,1026.403
2016-12-05T07:21:56.236Z,1026.377
2016-12-05T07:24:50.923Z,1026.381
2016-12-05T07:27:45.600Z,1026.414
2016-12-05T07:30:40.420Z,1026.420
2016-12-05T07:33:35.080Z,1026.406
2016-12-05T07:36:29.807Z,1026.404
2016-12-05T07:39:24.512Z,1026.404
2016-12-05T07:42:19.388Z,1026.393
2016-12-05T07:45:14.123Z,1026.393
2016-12-05T07:48:08.810Z,1026.382
2016-12-05T07:51:03.500Z,1026.388
2016-12-05T07:53:58.356Z,1026.341
2016-12-05T07:56:53.086Z,1026.332
2016-12-05T07:59:47.906Z,1026.379
2016-12-05T08:02:42.650Z,1026.382
2016-12-05T08:05:37.334Z,1026.395
2016-12-05T08:08:32.044Z,1026.408
2016-12-05T08:11:26.828Z,1026.405
2016-12-05T08:14:21.525Z,1026.441
2016-12-05T08:17:16.307Z,1026.427
2016-12-05T08:20:11.057Z,1026.409
2016-12-05T08:23:05.951Z,1026.430
2016-12-05T08:26:00.653Z,1026.432
2016-12-05T08:28:55.406Z,1026.469
2016-12-05T08:31:50.232Z,1026.465
2016-12-05T08:34:44.996Z,1026.458
2016-12-05T08:37:39.839Z,1026.473
2016-12-05T08:40:34.587Z,1026.465
2016-12-05T08:43:29.359Z,1026.457
2016-12-05T08:46:24.156Z,1026.424
2016-12-05T08:49:18.939Z,1026.411
2016-12-05T08:52:13.746Z,1026.390
2016-12-05T08:55:08.591Z,1026.418
2016-12-05T08:58:03.413Z,1026.421
2016-12-05T09:00:58.241Z,1026.404
2016-12-05T09:03:53.095Z,1026.379
2016-12-05T09:06:48.059Z,1026.374
2016-12-05T09:09:43.341Z,1026.332
2016-12-05T09:12:38.446Z,1026.378
2016-12-05T09:15:33.699Z,1026.362
2016-12-05T09:18:29.067Z,1026.374
2016-12-05T09:21:24.398Z,1026.372
2016-12-05T09:24:19.768Z,1026.371
2016-12-05T09:27:15.191Z,1026.414
2016-12-05T09:30:10.574Z,1026.388
2016-12-05T09:33:06.065Z,1026.309
2016-12-05T09:36:01.517Z,1026.227
2016-12-05T09:38:56.852Z,1026.156
2016-12-05T09:41:52.346Z,1026.143
2016-12-05T09:44:47.783Z,1026.172
2016-12-05T09:47:43.161Z,1026.120
2016-12-05T09:50:38.249Z,1026.032
2016-12-05T09:53:33.389Z,1025.982
2016-12-05T09:56:28.539Z,1025.947
2016-12-05T09:59:23.767Z,1025.919
2016-12-05T10:02:18.754Z,1025.909
2016-12-05T10:05:13.793Z,1025.878
2016-12-05T10:08:08.798Z,1025.833
2016-12-05T10:11:03.815Z,1025.769
2016-12-05T10:13:58.903Z,1025.712
2016-12-05T10:16:53.928Z,1025.681
2016-12-05T10:19:49.009Z,1025.643
2016-12-05T10:22:43.979Z,1025.625
2016-12-05T10:25:39.043Z,1025.568
2016-12-05T10:28:34.062Z,1025.541
2016-12-05T10:31:29.021Z,1025.545
2016-12-05T10:34:23.919Z,1025.478
2016-12-05T10:37:18.892Z,1025.477
2016-12-05T10:40:13.872Z,1025.475
2016-12-05T10:43:08.796Z,1025.429
2016-12-05T10:46:03.731Z,1025.423
2016-12-05T10:48:58.676Z,1025.465
2016-12-05T10:51:53.519Z,1025.478
2016-12-05T10:54:48.356Z,1025.514
2016-12-05T10:57:43.162Z,1025.471
2016-12-05T11:00:38.103Z,1025.473
2016-12-05T11:03:32.944Z,1025.480
2016-12-05T11:06:27.850Z,1025.478
2016-12-05T11:09:22.712Z,1025.525
2016-12-05T11:12:17.641Z,1025.436
2016-12-05T11:15:12.522Z,1025.345
2016-12-05T11:18:07.370Z,1025.308
2016-12-05T11:21:02.223Z,1025.313
2016-12-05T11:23:57.084Z,1025.307
2016-12-05T11:26:51.823Z,1025.308
2016-12-05T11:29:46.680Z,1025.363
2016-12-05T11:32:41.399Z,1025.280
2016-12-05T11:35:36.287Z,1025.262
2016-12-05T11:38:31.162Z,1025.196
2016-12-05T11:41:25.966Z,1025.123
2016-12-05T11:44:20.709Z,1025.137
2016-12-05T11:47:15.521Z,1025.153
2016-12-05T11:50:10.364Z,1025.106
2016-12-05T11:53:05.253Z,1025.065
2016-12-05T11:56:00.063Z,1025.045
2016-12-05T11:58:54.789Z,1025.068
2016-12-05T12:01:49.698Z,1025.005
2016-12-05T12:04:44.529Z,1024.943
2016-12-05T12:07:39.250Z,1024.912
2016-12-05T12:10:34.104Z,1024.939
2016-12-05T12:13:28.816Z,1024.909
2016-12-05T12:16:23.574Z,1024.884
2016-12-05T12:19:18.374Z,1024.808
2016-12-05T12:22:13.167Z,1024.751
2016-12-05T12:25:08.042Z,1024.709
2016-12-05T12:28:02.858Z,1024.735
2016-12-05T12:30:57.616Z,1024.696
2016-12-05T12:33:52.403Z,1024.657
2016-12-05T12:36:47.252Z,1024.630
2016-12-05T12:39:42.088Z,1024.579
2016-12-05T12:42:36.941Z,1024.594
2016-12-05T12:45:31.821Z,1024.587
2016-12-05T12:48:26.700Z,1024.518
2016-12-05T12:51:21.438Z,1024.471
2016-12-05T12:54:16.299Z,1024.431
2016-12-05T12:57:11.016Z,1024.388
2016-12-05T13:00:05.862Z,1024.384
2016-12-05T13:03:00.710Z,1024.367
2016-12-05T13:05:55.558Z,1024.398
2016-12-05T13:08:50.394Z,1024.381
2016-12-05T13:11:45.232Z,1024.364
2016-12-05T13:14:40.190Z,1024.394
2016-12-05T13:17:35.021Z,1024.346
2016-12-05T13:20:29.699Z,1024.387
2016-12-05T13:23:24.477Z,1024.300
2016-12-05T13:26:19.272Z,1024.225
2016-12-05T13:29:14.041Z,1024.206
2016-12-05T13:32:08.892Z,1024.218
2016-12-05T13:35:03.599Z,1024.215
2016-12-05T13:37:58.442Z,1024.234
2016-12-05T13:40:53.195Z,1024.249
2016-12-05T13:43:47.975Z,1024.257
2016-12-05T13:46:42.754Z,1024.246
2016-12-05T13:49:37.521Z,1024.234
2016-12-05T13:52:32.357Z,1024.250
2016-12-05T13:55:27.163Z,1024.276
2016-12-05T13:58:21.919Z,1024.292
2016-12-05T14:01:16.755Z,1024.262
2016-12-05T14:04:11.595Z,1024.281
2016-12-05T14:07:06.399Z,1024.297
2016-12-05T14:10:01.189Z,1024.333
2016-12-05T14:12:56.019Z,1024.366
2016-12-05T14:15:50.821Z,1024.326
2016-12-05T14:18:45.564Z,1024.350
2016-12-05T14:21:40.361Z,1024.413
2016-12-05T14:24:35.120Z,1024.429
2016-12-05T14:27:29.786Z,1024.468
2016-12-05T14:30:24.542Z,1024.507
2016-12-05T14:33:19.295Z,1024.514
2016-12-05T14:36:14.011Z,1024.536
2016-12-05T14:39:08.739Z,1024.522
2016-12-05T14:42:03.577Z,1024.486
2016-12-05T14:44:58.286Z,1024.469
2016-12-05T14:47:52.954Z,1024.466
2016-12-05T14:50:47.711Z,1024.443
2016-12-05T14:53:42.507Z,1024.417
2016-12-05T14:56:37.168Z,1024.464
2016-12-05T14:59:31.855Z,1024.507
2016-12-05T15:02:26.569Z,1024.481
2016-12-05T15:05:21.281Z,1024.436
2016-12-05T15:08:15.925Z,1024.398
2016-12-05T15:11:10.680Z,1024.427
2016-12-05T15:14:05.420Z,1024.441
2016-12-05T15:17:00.165Z,1024.459
2016-12-05T15:19:54.904Z,1024.440
2016-12-05T15:22:49.600Z,1024.438
2016-12-05T15:25:44.256Z,1024.448
2016-12-05T15:28:38.983Z,1024.520
2016-12-05T15:31:33.704Z,1024.510
2016-12-05T15:34:28.387Z,1024.515
2016-12-05T15:37:22.962Z,1024.495
2016-12-05T15:40:17.613Z,1024.411
2016-12-05T15:43:12.136Z,1024.404
2016-12-05T15:46:06.813Z,1024.386
2016-12-05T15:49:01.405Z,1024.417
2016-12-05T15:51:56.069Z,1024.447
2016-12-05T15:54:50.680Z,1024.415
2016-12-05T15:57:45.292Z,1024.377
2016-12-05T16:00:39.745Z,1024.349
2016-12-05T16:03:34.377Z,1024.369
2016-12-05T16:06:29.004Z,1024.364
2016-12-05T16:09:23.663Z,1024.346
2016-12-05T16:12:18.347Z,1024.366
2016-12-05T16:15:12.998Z,1024.318
2016-12-05T16:18:07.566Z,1024.335
2016-12-05T16:21:02.051Z,1024.325
2016-12-05T16:23:56.567Z,1024.322
2016-12-05T16:26:51.150Z,1024.322
2016-12-05T16:29:45.823Z,1024.302
2016-12-05T16:32:40.456Z,1024.242
2016-12-05T16:35:35.126Z,1024.285
2016-12-05T16:38:29.852Z,1024.321
2016-12-05T16:41:24.467Z,1024.359
2016-12-05T16:44:19.051Z,1024.333
2016-12-05T16:47:13.777Z,1024.299
2016-12-05T16:50:08.332Z,1024.294
2016-12-05T16:53:03.007Z,1024.303
2016-12-05T16:55:57.709Z,1024.351
2016-12-05T16:58:52.368Z,1024.334
2016-12-05T17:01:47.059Z,1024.252
2016-12-05T17:04:41.696Z,1024.252
2016-12-05T17:07:36.374Z,1024.286
2016-12-05T17:10:31.078Z,1024.313
2016-12-05T17:13:25.767Z,1024.372
2016-12-05T17:16:20.464Z,1024.316
2016-12-05T17:19:15.102Z,1024.310
2016-12-05T17:22:09.761Z,1024.351
2016-12-05T17:25:04.420Z,1024.406
2016-12-05T17:27:59.068Z,1024.383
2016-12-05T17:30:53.824Z,1024.399
2016-12-05T17:33:48.401Z,1024.368
2016-12-05T17:36:43.139Z,1024.390
2016-12-05T17:39:37.739Z,1024.344
2016-12-05T17:42:32.236Z,1024.328
2016-12-05T17:45:26.915Z,1024.299
2016-12-05T17:48:21.509Z,1024.330
2016-12-05T17:51:16.069Z,1024.343
2016-12-05T17:54:10.797Z,1024.407
2016-12-05T17:57:05.531Z,1024.457
2016-12-05T18:00:00.114Z,1024.525
2016-12-05T18:02:54.715Z,1024.530
2016-12-05T18:05:49.381Z,1024.541
2016-12-05T18:08:44.071Z,1024.542
2016-12-05T18:11:38.692Z,1024.567
2016-12-05T18:14:33.323Z,1024.606
2016-12-05T18:17:27.992Z,1024.639
2016-12-05T18:20:22.512Z,1024.668
2016-12-05T18:23:17.185Z,1024.715
2016-12-05T18:26:11.794Z,1024.711
2016-12-05T18:29:06.405Z,1024.681
2016-12-05T18:32:01.084Z,1024.649
2016-12-05T18:34:55.798Z,1024.605
2016-12-05T18:37:50.346Z,1024.612
2016-12-05T18:40:44.985Z,1024.652
2016-12-05T18:43:39.579Z,1024.673
2016-12-05T18:46:34.128Z,1024.685
2016-12-05T18:49:28.756Z,1024.670
2016-12-05T18:52:23.432Z,1024.643
2016-12-05T18:55:18.038Z,1024.649
2016-12-05T18:58:12.625Z,1024.653
2016-12-05T19:01:07.228Z,1024.583
2016-12-05T19:04:01.853Z,1024.516
2016-12-05T19:06:56.488Z,1024.513
2016-12-05T19:09:51.184Z,1024.581
2016-12-05T19:12:45.766Z,1024.631
2016-12-05T19:15:40.306Z,1024.668
2016-12-05T19:18:34.826Z,1024.661
2016-12-05T19:21:29.403Z,1024.700
2016-12-05T19:24:23.991Z,1024.705
2016-12-05T19:27:18.468Z,1024.658
2016-12-05T19:30:13.086Z,1024.616
2016-12-05T19:33:07.724Z,1024.592
2016-12-05T19:36:02.229Z,1024.631
2016-12-05T19:38:56.874Z,1024.708
2016-12-05T19:41:51.476Z,1024.748
2016-12-05T19:44:46.083Z,1024.753
2016-12-05T19:47:40.741Z,1024.749
2016-12-05T19:50:35.364Z,1024.789
2016-12-05T19:53:30.011Z,1024.773
2016-12-05T19:56:24.632Z,1024.789
2016-12-05T19:59:19.228Z,1024.786
2016-12-05T20:02:13.847Z,1024.741
2016-12-05T20:05:08.422Z,1024.761
2016-12-05T20:08:03.083Z,1024.821
2016-12-05T20:10:57.659Z,1024.798
2016-12-05T20:13:52.333Z,1024.775
2016-12-05T20:16:47.008Z,1024.751
2016-12-05T20:19:41.519Z,1024.737
2016-12-05T20:22:36.029Z,1024.713
2016-12-05T20:25:30.730Z,1024.713
2016-12-05T20:28:25.369Z,1024.772
2016-12-05T20:31:19.934Z,1024.794
2016-12-05T20:34:14.578Z,1024.793
2016-12-05T20:37:09.269Z,1024.811
2016-12-05T20:40:03.865Z,1024.786
2016-12-05T20:42:58.616Z,1024.799
2016-12-05T20:45:53.139Z,1024.799
2016-12-05T20:48:47.762Z,1024.794
2016-12-05T20:51:42.373Z,1024.812
2016-12-05T20:54:36.956Z,1024.818
2016-12-05T20:57:31.677Z,1024.780
2016-12-05T21:00:26.294Z,1024.752
2016-12-05T21:03:20.829Z,1024.805
2016-12-05T21:06:15.477Z,1024.817
2016-12-05T21:09:10.122Z,1024.803
2016-12-05T21:12:04.816Z,1024.798
2016-12-05T21:14:59.427Z,1024.802
2016-12-05T21:17:54.108Z,1024.789
2016-12-05T21:20:48.757Z,1024.766
2016-12-05T21:23:43.455Z,1024.768
2016-12-05T21:26:38.202Z,1024.779
2016-12-05T21:29:32.839Z,1024.796
2016-12-05T21:32:27.471Z,1024.825
2016-12-05T21:35:22.151Z,1024.814
2016-12-05T21:38:16.820Z,1024.815
2016-12-05T21:41:11.502Z,1024.782
2016-12-05T21:44:06.206Z,1024.826
2016-12-05T21:47:00.936Z,1024.832
2016-12-05T21:49:55.589Z,1024.800
2016-12-05T21:52:50.300Z,1024.796
2016-12-05T21:55:45.077Z,1024.785
2016-12-05T21:58:39.882Z,1024.816
2016-12-05T22:01:34.473Z,1024.730
2016-12-05T22:04:29.270Z,1024.817
2016-12-05T22:07:23.972Z,1024.775
2016-12-05T22:10:18.898Z,1024.737
2016-12-05T22:13:13.519Z,1024.748
2016-12-05T22:16:08.304Z,1024.701
2016-12-05T22:19:03.005Z,1024.646
2016-12-05T22:21:57.746Z,1024.671
2016-12-05T22:24:52.506Z,1024.655
2016-12-05T22:27:47.175Z,1024.669
2016-12-05T22:30:41.921Z,1024.693
2016-12-05T22:33:36.730Z,1024.679
2016-12-05T22:36:31.498Z,1024.735
2016-12-05T22:39:26.329Z,1024.672
2016-12-05T22:42:21.115Z,1024.609
2016-12-05T22:45:15.935Z,1024.565
2016-12-05T22:48:10.753Z,1024.561
2016-12-05T22:51:05.495Z,1024.513
2016-12-05T22:54:00.207Z,1024.404
2016-12-05T22:56:54.900Z,1024.429
2016-12-05T22:59:49.680Z,1024.430
2016-12-05T23:02:44.494Z,1024.492
2016-12-05T23:05:39.363Z,1024.521
2016-12-05T23:08:34.068Z,1024.486
2016-12-05T23:11:28.819Z,1024.545
2016-12-05T23:14:23.597Z,1024.467
2016-12-05T23:17:18.369Z,1024.436
2016-12-05T23:20:13.153Z,1024.429
2016-12-05T23:23:07.883Z,1024.338
2016-12-05T23:26:02.596Z,1024.333
2016-12-05T23:28:57.422Z,1024.290
2016-12-05T23:31:52.324Z,1024.412
2016-12-05T23:34:47.081Z,1024.437
2016-12-05T23:37:41.921Z,1024.427
2016-12-05T23:40:36.765Z,1024.524
2016-12-05T23:43:31.551Z,1024.505
2016-12-05T23:46:26.238Z,1024.523
2016-12-05T23:49:20.951Z,1024.521
2016-12-05T23:52:15.820Z,1024.589
2016-12-05T23:55:10.655Z,1024.590
2016-12-05T23:58:05.478Z,1024.635
